createdAt,value
2024-03-06T00:00:50.882Z,95938.65
2024-03-06T00:03:39.169Z,95934.73
2024-03-06T00:06:07.779Z,95932.33
2024-03-06T00:08:36.181Z,95933.17
2024-03-06T00:11:04.675Z,95931.84
2024-03-06T00:13:33.099Z,95929.55
2024-03-06T00:16:01.402Z,95928.48
2024-03-06T00:18:29.802Z,95930.52
2024-03-06T00:20:58.137Z,95928.52
2024-03-06T00:23:27.348Z,95926.36
2024-03-06T00:25:55.849Z,95927.67
2024-03-06T00:28:24.251Z,95928.70
2024-03-06T00:30:52.589Z,95927.55
2024-03-06T00:33:20.990Z,95927.06
2024-03-06T00:35:49.418Z,95926.63
2024-03-06T00:38:17.798Z,95924.62
2024-03-06T00:40:46.259Z,95923.33
2024-03-06T00:43:14.799Z,95922.80
2024-03-06T00:45:43.844Z,95925.77
2024-03-06T00:48:12.256Z,95925.41
2024-03-06T00:50:40.975Z,95925.41
2024-03-06T00:53:09.429Z,95921.79
2024-03-06T00:55:38.217Z,95923.23
2024-03-06T00:58:07.963Z,95923.32
2024-03-06T01:00:36.508Z,95918.58
2024-03-06T01:03:04.964Z,95917.64
2024-03-06T01:05:33.750Z,95922.46
2024-03-06T01:08:02.208Z,95920.52
2024-03-06T01:10:30.649Z,95920.51
2024-03-06T01:12:59.093Z,95922.10
2024-03-06T01:15:27.455Z,95921.97
2024-03-06T01:17:55.848Z,95922.38
2024-03-06T01:20:24.331Z,95921.34
2024-03-06T01:22:52.755Z,95924.86
2024-03-06T01:25:21.924Z,95921.36
2024-03-06T01:27:50.483Z,95922.08
2024-03-06T01:30:18.887Z,95921.10
2024-03-06T01:32:47.587Z,95917.71
2024-03-06T01:35:16.244Z,95919.73
2024-03-06T01:37:44.623Z,95920.73
2024-03-06T01:40:13.664Z,95920.70
2024-03-06T01:42:42.066Z,95925.64
2024-03-06T01:45:10.901Z,95924.89
2024-03-06T01:47:39.292Z,95922.22
2024-03-06T01:50:10.599Z,95924.11
2024-03-06T01:52:41.289Z,95927.29
2024-03-06T01:55:11.574Z,95930.74
2024-03-06T01:57:41.599Z,95932.94
2024-03-06T02:00:14.989Z,95934.11
2024-03-06T02:02:44.805Z,95941.41
2024-03-06T02:05:14.083Z,95943.66
2024-03-06T02:07:46.052Z,95943.23
2024-03-06T02:10:14.782Z,95946.52
2024-03-06T02:12:43.971Z,95950.23
2024-03-06T02:15:13.896Z,95952.73
2024-03-06T02:17:43.446Z,95957.08
2024-03-06T02:20:13.986Z,95958.23
2024-03-06T02:22:42.626Z,95957.56
2024-03-06T02:25:12.288Z,95956.41
2024-03-06T02:27:40.767Z,95960.20
2024-03-06T02:30:09.482Z,95967.11
2024-03-06T02:32:38.026Z,95966.41
2024-03-06T02:35:10.104Z,95962.13
2024-03-06T02:37:39.874Z,95959.13
2024-03-06T02:40:11.199Z,95963.45
2024-03-06T02:42:40.311Z,95962.27
2024-03-06T02:45:10.056Z,95964.40
2024-03-06T02:47:38.519Z,95964.92
2024-03-06T02:50:08.883Z,95969.85
2024-03-06T02:52:37.714Z,95969.45
2024-03-06T02:55:06.794Z,95974.55
2024-03-06T02:57:35.172Z,95978.48
2024-03-06T03:00:05.893Z,95978.36
2024-03-06T03:02:34.424Z,95979.19
2024-03-06T03:05:02.951Z,95984.09
2024-03-06T03:07:31.430Z,95985.36
2024-03-06T03:09:59.769Z,95988.48
2024-03-06T03:12:28.127Z,95992.19
2024-03-06T03:14:56.529Z,95992.02
2024-03-06T03:17:24.939Z,95994.86
2024-03-06T03:19:53.913Z,95994.55
2024-03-06T03:22:22.336Z,95995.40
2024-03-06T03:24:50.709Z,96000.94
2024-03-06T03:27:19.348Z,95997.17
2024-03-06T03:29:47.722Z,95996.29
2024-03-06T03:32:17.912Z,95999.95
2024-03-06T03:34:46.445Z,96001.44
2024-03-06T03:37:14.814Z,96001.99
2024-03-06T03:39:45.335Z,96001.57
2024-03-06T03:42:13.671Z,95998.96
2024-03-06T03:44:41.993Z,96001.27
2024-03-06T03:47:10.375Z,95999.53
2024-03-06T03:49:38.716Z,96001.20
2024-03-06T03:52:07.908Z,96003.37
2024-03-06T03:54:36.548Z,96007.21
2024-03-06T03:57:05.121Z,96008.45
2024-03-06T03:59:33.444Z,96012.16
2024-03-06T04:02:01.903Z,96009.02
2024-03-06T04:04:30.546Z,96008.08
2024-03-06T04:07:00.855Z,96010.63
2024-03-06T04:09:29.533Z,96015.55
2024-03-06T04:11:57.981Z,96013.47
2024-03-06T04:14:27.930Z,96015.20
2024-03-06T04:16:56.357Z,96016.13
2024-03-06T04:19:24.786Z,96013.77
2024-03-06T04:21:53.173Z,96017.79
2024-03-06T04:24:21.603Z,96018.41
2024-03-06T04:26:49.965Z,96020.45
2024-03-06T04:29:18.926Z,96023.20
2024-03-06T04:31:47.329Z,96023.90
2024-03-06T04:34:15.938Z,96023.91
2024-03-06T04:36:44.239Z,96024.06
2024-03-06T04:39:13.338Z,96026.06
2024-03-06T04:41:41.726Z,96027.61
2024-03-06T04:44:10.059Z,96032.76
2024-03-06T04:46:38.464Z,96029.80
2024-03-06T04:49:06.717Z,96031.27
2024-03-06T04:51:35.111Z,96030.81
2024-03-06T04:54:04.623Z,96031.27
2024-03-06T04:56:32.942Z,96030.91
2024-03-06T04:59:04.452Z,96031.94
2024-03-06T05:01:33.116Z,96032.02
2024-03-06T05:59:17.719Z,96063.99
2024-03-06T06:01:46.771Z,96068.08
2024-03-06T06:04:15.679Z,96066.54
2024-03-06T06:06:44.127Z,96064.86
2024-03-06T06:09:17.362Z,96062.95
2024-03-06T06:11:46.408Z,96064.05
2024-03-06T06:14:15.060Z,96067.19
2024-03-06T06:16:44.085Z,96068.55
2024-03-06T06:19:12.600Z,96066.96
2024-03-06T06:21:42.477Z,96069.73
2024-03-06T06:24:10.938Z,96071.27
2024-03-06T06:26:39.356Z,96071.02
2024-03-06T06:29:07.799Z,96071.41
2024-03-06T06:31:36.264Z,96066.92
2024-03-06T06:34:04.650Z,96062.20
2024-03-06T06:36:33.033Z,96061.32
2024-03-06T06:39:03.961Z,96059.83
2024-03-06T06:41:34.487Z,96062.11
2024-03-06T06:44:04.106Z,96063.08
2024-03-06T06:46:32.856Z,96063.59
2024-03-06T06:49:01.320Z,96063.69
2024-03-06T06:51:29.712Z,96069.60
2024-03-06T06:54:00.616Z,96072.62
2024-03-06T06:56:30.171Z,96073.03
2024-03-06T06:58:58.673Z,96073.66
2024-03-06T07:01:27.133Z,96072.58
2024-03-06T07:03:55.560Z,96073.42
2024-03-06T07:06:24.017Z,96071.15
2024-03-06T07:08:52.438Z,96070.83
2024-03-06T07:11:21.724Z,96074.15
2024-03-06T07:13:52.825Z,96074.27
2024-03-06T07:16:28.249Z,96076.00
2024-03-06T07:18:56.599Z,96076.11
2024-03-06T07:21:25.416Z,96075.74
2024-03-06T07:23:53.765Z,96079.52
2024-03-06T07:26:22.628Z,96082.42
2024-03-06T07:28:51.049Z,96081.69
2024-03-06T07:31:20.122Z,96080.10
2024-03-06T07:33:53.714Z,96079.13
2024-03-06T07:36:25.383Z,96083.63
2024-03-06T07:38:53.797Z,96087.06
2024-03-06T07:41:22.240Z,96083.83
2024-03-06T07:43:50.591Z,96087.34
2024-03-06T07:46:18.953Z,96086.16
2024-03-06T07:48:47.462Z,96088.67
2024-03-06T07:51:15.821Z,96090.92
2024-03-06T07:53:44.245Z,96093.17
2024-03-06T07:56:14.933Z,96093.66
2024-03-06T07:58:42.241Z,96092.77
2024-03-06T08:01:09.630Z,96099.05
2024-03-06T08:03:54.893Z,96091.66
2024-03-06T08:06:22.358Z,96098.61
2024-03-06T08:08:49.927Z,96097.16
2024-03-06T08:11:17.596Z,96098.41
2024-03-06T08:13:45.232Z,96099.42
2024-03-06T08:16:12.625Z,96102.59
2024-03-06T08:18:40.022Z,96096.55
2024-03-06T08:21:08.180Z,96098.55
2024-03-06T08:23:35.574Z,96094.20
2024-03-06T08:26:03.151Z,96094.69
2024-03-06T08:28:30.470Z,96095.77
2024-03-06T08:30:58.391Z,96101.71
2024-03-06T08:33:26.443Z,96102.20
2024-03-06T08:35:54.224Z,96101.98
2024-03-06T08:38:21.727Z,96103.26
2024-03-06T08:40:50.087Z,96105.55
2024-03-06T08:43:18.090Z,96108.69
2024-03-06T08:45:45.441Z,96111.79
2024-03-06T08:48:13.072Z,96110.34
2024-03-06T08:50:40.935Z,96106.79
2024-03-06T08:53:10.694Z,96107.64
2024-03-06T08:55:38.413Z,96110.08
2024-03-06T08:58:05.853Z,96112.45
2024-03-06T09:00:33.440Z,96111.12
2024-03-06T09:03:01.516Z,96111.64
2024-03-06T09:05:28.971Z,96106.98
2024-03-06T09:08:01.333Z,96109.09
2024-03-06T09:10:29.999Z,96106.27
2024-03-06T09:12:57.407Z,96109.36
2024-03-06T09:15:25.661Z,96104.48
2024-03-06T09:17:53.319Z,96109.90
2024-03-06T09:20:21.497Z,96112.13
2024-03-06T09:22:49.318Z,96109.66
2024-03-06T09:25:17.012Z,96102.86
2024-03-06T09:27:45.070Z,96105.64
2024-03-06T09:30:14.859Z,96106.55
2024-03-06T09:32:43.386Z,96108.80
2024-03-06T09:35:11.301Z,96109.64
2024-03-06T09:37:38.665Z,96109.75
2024-03-06T09:40:09.046Z,96108.80
2024-03-06T09:42:36.465Z,96109.54
2024-03-06T09:45:04.066Z,96113.90
2024-03-06T09:47:33.981Z,96111.42
2024-03-06T09:50:04.484Z,96112.58
2024-03-06T09:52:33.975Z,96112.48
2024-03-06T10:01:25.975Z,96112.58
2024-03-06T10:03:53.656Z,96116.14
2024-03-06T10:06:21.851Z,96113.73
2024-03-06T10:08:50.655Z,96111.23
2024-03-06T10:11:19.522Z,96111.18
2024-03-06T10:13:46.913Z,96113.09
2024-03-06T10:16:15.643Z,96106.14
2024-03-06T10:18:43.413Z,96104.55
2024-03-06T10:21:10.894Z,96102.93
2024-03-06T10:23:38.795Z,96104.86
2024-03-06T10:33:57.187Z,96099.64
2024-03-06T10:36:28.829Z,96095.16
2024-03-06T10:39:01.216Z,96091.83
2024-03-06T10:41:34.216Z,96091.73
2024-03-06T10:44:03.248Z,96095.97
2024-03-06T10:46:32.673Z,96096.71
2024-03-06T10:49:01.598Z,96088.88
2024-03-06T10:51:31.224Z,96086.27
2024-03-06T10:54:00.156Z,96081.65
2024-03-06T10:56:27.635Z,96090.44
2024-03-06T10:58:58.263Z,96091.66
2024-03-06T11:01:26.150Z,96089.54
2024-03-06T11:03:53.780Z,96087.23
2024-03-06T11:06:21.156Z,96088.05
2024-03-06T11:08:49.843Z,96088.19
2024-03-06T11:11:25.239Z,96090.88
2024-03-06T11:13:59.802Z,96089.57
2024-03-06T11:16:35.268Z,96092.48
2024-03-06T11:19:11.247Z,96095.60
2024-03-06T11:21:49.110Z,96095.93
2024-03-06T11:24:33.572Z,96097.52
2024-03-06T11:27:03.041Z,96101.59
2024-03-06T11:29:51.236Z,96099.02
2024-03-06T11:32:19.438Z,96098.70
2024-03-06T11:34:46.913Z,96094.23
2024-03-06T11:37:14.741Z,96090.63
2024-03-06T11:39:45.430Z,96091.01
2024-03-06T11:42:14.920Z,96084.80
2024-03-06T11:44:58.784Z,96082.23
2024-03-06T11:47:26.442Z,96081.64
2024-03-06T11:56:45.528Z,96080.28
2024-03-06T11:59:13.089Z,96080.52
2024-03-06T12:01:42.145Z,96081.62
2024-03-06T12:04:09.651Z,96078.09
2024-03-06T12:06:37.149Z,96078.73
2024-03-06T12:09:05.105Z,96075.95
2024-03-06T12:11:32.808Z,96072.73
2024-03-06T12:14:00.526Z,96071.66
2024-03-06T12:16:27.855Z,96079.08
2024-03-06T12:18:59.225Z,96075.27
2024-03-06T12:21:34.069Z,96075.98
2024-03-06T12:24:11.179Z,96076.50
2024-03-06T12:26:39.035Z,96078.08
2024-03-06T12:29:11.257Z,96082.50
2024-03-06T12:31:43.564Z,96083.45
2024-03-06T12:34:18.648Z,96086.70
2024-03-06T12:36:47.227Z,96091.15
2024-03-06T12:39:19.518Z,96095.48
2024-03-06T12:41:47.021Z,96096.90
2024-03-06T12:50:38.733Z,96103.84
2024-03-06T12:59:37.491Z,96105.34
2024-03-06T13:02:05.389Z,96101.67
2024-03-06T13:04:32.907Z,96098.52
2024-03-06T13:07:00.365Z,96095.35
2024-03-06T13:09:27.736Z,96098.09
2024-03-06T13:11:55.842Z,96096.11
2024-03-06T13:14:23.647Z,96095.56
2024-03-06T13:16:51.113Z,96089.65
2024-03-06T13:19:18.501Z,96089.83
2024-03-06T13:21:45.821Z,96090.73
2024-03-06T13:24:13.192Z,96088.52
2024-03-06T13:26:41.679Z,96087.42
2024-03-06T13:29:09.282Z,96088.02
2024-03-06T13:31:37.452Z,96085.17
2024-03-06T13:34:08.934Z,96086.66
2024-03-06T13:36:36.353Z,96083.55
2024-03-06T13:39:03.796Z,96083.56
2024-03-06T13:41:31.213Z,96083.47
2024-03-06T13:43:58.736Z,96084.61
2024-03-06T13:46:26.125Z,96083.36
2024-03-06T13:48:53.513Z,96081.68
2024-03-06T13:51:20.964Z,96079.98
2024-03-06T13:53:49.267Z,96071.43
2024-03-06T13:56:16.944Z,96068.27
2024-03-06T13:58:44.490Z,96069.51
2024-03-06T14:01:16.776Z,96068.90
2024-03-06T14:03:50.670Z,96063.36
2024-03-06T14:06:23.410Z,96063.46
2024-03-06T14:08:50.917Z,96062.31
2024-03-06T14:11:20.175Z,96058.71
2024-03-06T14:13:47.777Z,96059.95
2024-03-06T14:16:15.188Z,96057.88
2024-03-06T14:18:42.751Z,96055.52
2024-03-06T14:21:10.565Z,96055.41
2024-03-06T14:23:37.948Z,96053.78
2024-03-06T14:26:05.546Z,96051.13
2024-03-06T14:28:32.960Z,96050.08
2024-03-06T14:31:01.392Z,96044.38
2024-03-06T14:33:28.754Z,96046.80
2024-03-06T14:35:56.684Z,96046.92
2024-03-06T14:38:24.235Z,96047.30
2024-03-06T14:40:51.678Z,96048.59
2024-03-06T14:43:19.032Z,96046.35
2024-03-06T14:45:47.136Z,96045.48
2024-03-06T14:48:14.568Z,96042.45
2024-03-06T14:50:42.157Z,96044.20
2024-03-06T14:53:09.656Z,96039.27
2024-03-06T14:55:37.148Z,96035.19
2024-03-06T14:58:05.747Z,96034.11
2024-03-06T15:00:33.222Z,96032.10
2024-03-06T15:03:21.517Z,96027.73
2024-03-06T15:05:49.262Z,96028.50
2024-03-06T15:08:31.552Z,96026.08
2024-03-06T15:10:59.119Z,96024.42
2024-03-06T15:13:26.749Z,96023.45
2024-03-06T15:15:55.007Z,96026.08
2024-03-06T15:18:22.710Z,96023.77
2024-03-06T15:20:56.516Z,96022.70
2024-03-06T15:23:24.057Z,96022.36
2024-03-06T15:25:52.034Z,96027.73
2024-03-06T15:28:19.371Z,96023.80
2024-03-06T15:30:46.829Z,96026.52
2024-03-06T15:33:14.372Z,96026.25
2024-03-06T15:35:42.023Z,96029.19
2024-03-06T15:38:10.260Z,96028.36
2024-03-06T15:40:37.665Z,96029.95
2024-03-06T15:43:05.093Z,96028.83
2024-03-06T15:45:32.741Z,96029.08
2024-03-06T15:48:00.181Z,96028.80
2024-03-06T15:50:28.061Z,96028.67
2024-03-06T15:53:11.127Z,96031.83
2024-03-06T15:55:39.176Z,96032.63
2024-03-06T15:58:06.801Z,96031.25
2024-03-06T16:00:34.288Z,96032.55
2024-03-06T16:03:01.791Z,96034.19
2024-03-06T16:05:29.587Z,96036.32
2024-03-06T16:08:05.445Z,96038.66
2024-03-06T16:10:36.037Z,96031.10
2024-03-06T16:13:03.646Z,96029.45
2024-03-06T16:15:31.624Z,96030.92
2024-03-06T16:17:59.214Z,96029.16
2024-03-06T16:20:27.160Z,96033.20
2024-03-06T16:22:54.567Z,96033.44
2024-03-06T16:25:22.383Z,96034.31
2024-03-06T16:34:04.654Z,96039.91
2024-03-06T16:36:32.145Z,96035.92
2024-03-06T16:38:59.578Z,96037.89
2024-03-06T16:41:27.438Z,96040.02
2024-03-06T16:43:55.001Z,96041.55
2024-03-06T16:46:22.368Z,96042.27
2024-03-06T16:48:49.919Z,96041.32
2024-03-06T16:51:21.316Z,96043.66
2024-03-06T16:53:48.848Z,96043.60
2024-03-06T16:56:16.429Z,96044.56
2024-03-06T16:58:43.785Z,96045.02
2024-03-06T17:01:11.621Z,96046.61
2024-03-06T17:03:39.098Z,96049.09
2024-03-06T17:06:07.846Z,96047.52
2024-03-06T17:08:36.906Z,96051.92
2024-03-06T17:11:05.604Z,96057.20
2024-03-06T17:13:36.534Z,96051.41
2024-03-06T17:16:08.990Z,96052.38
2024-03-06T17:18:38.572Z,96052.40
2024-03-06T17:21:10.098Z,96050.32
2024-03-06T17:23:55.399Z,96053.24
2024-03-06T17:26:24.084Z,96053.38
2024-03-06T17:28:53.026Z,96050.88
2024-03-06T17:31:21.518Z,96048.44
2024-03-06T17:33:49.960Z,96050.04
2024-03-06T17:36:18.746Z,96048.35
2024-03-06T17:38:48.334Z,96050.04
2024-03-06T17:41:18.843Z,96049.98
2024-03-06T17:43:47.487Z,96044.48
2024-03-06T17:46:16.066Z,96048.59
2024-03-06T17:48:45.133Z,96045.83
2024-03-06T17:51:16.209Z,96044.88
2024-03-06T17:53:47.356Z,96044.11
2024-03-06T17:56:30.449Z,96043.09
2024-03-06T17:58:58.953Z,96044.04
2024-03-06T18:01:27.520Z,96043.60
2024-03-06T18:03:56.124Z,96045.84
2024-03-06T18:06:26.046Z,96045.45
2024-03-06T18:08:54.704Z,96042.09
2024-03-06T18:11:23.332Z,96039.90
2024-03-06T18:13:51.881Z,96039.51
2024-03-06T18:16:20.237Z,96038.35
2024-03-06T18:18:48.685Z,96035.02
2024-03-06T18:21:17.164Z,96034.50
2024-03-06T18:23:45.641Z,96035.41
2024-03-06T18:26:14.161Z,96033.79
2024-03-06T18:28:42.701Z,96033.20
2024-03-06T18:31:11.084Z,96036.30
2024-03-06T18:33:39.686Z,96036.62
2024-03-06T18:36:08.658Z,96033.48
2024-03-06T18:38:39.083Z,96034.36
2024-03-06T18:41:07.687Z,96030.77
2024-03-06T18:43:36.280Z,96033.91
2024-03-06T18:46:04.743Z,96033.13
2024-03-06T18:48:33.184Z,96035.10
2024-03-06T18:51:02.048Z,96034.80
2024-03-06T18:53:30.637Z,96036.59
2024-03-06T18:55:59.216Z,96032.42
2024-03-06T18:58:29.089Z,96040.22
2024-03-06T19:00:57.642Z,96038.27
2024-03-06T19:03:26.091Z,96036.98
2024-03-06T19:05:55.261Z,96038.11
2024-03-06T19:08:24.210Z,96037.24
2024-03-06T19:10:52.746Z,96036.63
2024-03-06T19:13:21.245Z,96039.02
2024-03-06T19:15:49.714Z,96040.79
2024-03-06T19:18:18.248Z,96042.38
2024-03-06T19:20:47.008Z,96043.28
2024-03-06T19:23:15.823Z,96045.23
2024-03-06T19:25:44.250Z,96047.21
2024-03-06T19:28:13.296Z,96047.23
2024-03-06T19:30:41.658Z,96039.47
2024-03-06T19:33:23.865Z,96044.16
2024-03-06T19:35:52.563Z,96040.92
2024-03-06T19:38:21.052Z,96043.82
2024-03-06T19:40:51.693Z,96045.63
2024-03-06T19:43:20.103Z,96044.54
2024-03-06T19:45:48.543Z,96045.38
2024-03-06T19:48:18.544Z,96044.10
2024-03-06T19:50:47.714Z,96043.27
2024-03-06T19:53:17.011Z,96042.02
2024-03-06T19:55:46.233Z,96038.83
2024-03-06T19:58:14.963Z,96038.33
2024-03-06T20:00:43.476Z,96035.96
2024-03-06T20:03:11.871Z,96033.77
2024-03-06T20:05:40.727Z,96037.09
2024-03-06T20:08:09.230Z,96029.52
2024-03-06T20:10:38.205Z,96029.11
2024-03-06T20:13:06.934Z,96031.48
2024-03-06T20:15:38.743Z,96032.36
2024-03-06T20:18:07.545Z,96028.71
2024-03-06T20:20:36.190Z,96034.29
2024-03-06T20:23:13.758Z,96033.23
2024-03-06T20:25:43.947Z,96032.58
2024-03-06T20:28:12.332Z,96032.51
2024-03-06T20:30:44.155Z,96035.33
2024-03-06T20:33:13.369Z,96035.20
2024-03-06T20:35:42.045Z,96037.00
2024-03-06T20:38:16.650Z,96032.83
2024-03-06T20:40:48.261Z,96034.76
2024-03-06T20:43:17.686Z,96034.92
2024-03-06T20:45:48.992Z,96035.45
2024-03-06T20:48:17.519Z,96031.45
2024-03-06T20:50:46.109Z,96024.52
2024-03-06T20:53:14.649Z,96031.09
2024-03-06T20:55:47.191Z,96027.77
2024-03-06T20:58:15.701Z,96029.88
2024-03-06T21:00:44.872Z,96029.64
2024-03-06T21:03:17.421Z,96031.90
2024-03-06T21:05:46.260Z,96032.40
2024-03-06T21:08:14.864Z,96032.33
2024-03-06T21:10:45.836Z,96032.84
2024-03-06T21:13:14.688Z,96037.78
2024-03-06T21:15:43.207Z,96033.38
2024-03-06T21:18:12.952Z,96034.83
2024-03-06T21:20:41.659Z,96035.38
2024-03-06T21:23:10.166Z,96035.83
2024-03-06T21:25:38.709Z,96038.40
2024-03-06T21:28:08.578Z,96036.63
2024-03-06T21:30:37.001Z,96039.23
2024-03-06T21:33:06.953Z,96040.71
2024-03-06T21:35:35.563Z,96039.86
2024-03-06T21:38:04.653Z,96039.52
2024-03-06T21:40:33.054Z,96040.85
2024-03-06T21:43:04.978Z,96043.70
2024-03-06T21:45:36.644Z,96040.89
2024-03-06T21:48:05.748Z,96043.91
2024-03-06T21:50:34.701Z,96046.92
2024-03-06T21:53:03.450Z,96042.46
2024-03-06T21:55:34.295Z,96044.87
2024-03-06T21:58:02.620Z,96048.83
2024-03-06T22:00:32.797Z,96047.62
2024-03-06T22:03:01.561Z,96044.79
2024-03-06T22:05:43.756Z,96045.86
2024-03-06T22:08:12.275Z,96046.05
2024-03-06T22:10:58.391Z,96045.20
2024-03-06T22:13:26.821Z,96047.05
2024-03-06T22:15:55.234Z,96048.66
2024-03-06T22:18:23.615Z,96046.79
2024-03-06T22:21:06.928Z,96047.13
2024-03-06T22:23:35.946Z,96048.59
2024-03-06T22:26:04.764Z,96047.01
2024-03-06T22:28:33.140Z,96044.21
2024-03-06T22:31:01.907Z,96043.46
2024-03-06T22:33:44.697Z,96043.94
2024-03-06T22:36:17.524Z,96043.35
2024-03-06T22:38:46.694Z,96045.17
2024-03-06T22:41:24.079Z,96041.34
2024-03-06T22:43:52.577Z,96042.79
2024-03-06T22:46:22.960Z,96042.77
2024-03-06T22:49:05.210Z,96041.64
2024-03-06T22:51:33.530Z,96042.69
2024-03-06T22:54:02.295Z,96043.10
2024-03-06T22:56:32.898Z,96041.36
2024-03-06T22:59:01.953Z,96040.66
2024-03-06T23:01:30.370Z,96040.15
2024-03-06T23:03:58.704Z,96040.94
2024-03-06T23:06:29.323Z,96039.39
2024-03-06T23:08:57.835Z,96041.04
2024-03-06T23:11:26.365Z,96040.15
2024-03-06T23:13:54.881Z,96042.14
2024-03-06T23:16:23.281Z,96041.33
2024-03-06T23:19:05.505Z,96040.50
2024-03-06T23:21:36.707Z,96044.13
2024-03-06T23:24:05.323Z,96043.77
2024-03-06T23:26:33.843Z,96042.27
2024-03-06T23:29:02.464Z,96040.65
2024-03-06T23:31:30.968Z,96040.64
2024-03-06T23:33:59.387Z,96045.69
2024-03-06T23:36:27.753Z,96044.66
2024-03-06T23:38:56.155Z,96045.82
2024-03-06T23:41:24.688Z,96047.27
2024-03-06T23:44:06.956Z,96046.92
2024-03-06T23:46:49.366Z,96043.48
2024-03-06T23:49:20.615Z,96046.15
2024-03-06T23:51:50.308Z,96045.64
2024-03-06T23:54:20.665Z,96047.11
2024-03-06T23:56:51.227Z,96048.98
2024-03-06T23:59:20.415Z,96054.09
